Hauptseite
METAR-TAF:

METAR-TAF

Flughäfen :

Treviso, Italien

Militärflugplatz Istrana

Breite: 45-41N, Länge: 012-06E, Höhe: 45 m

Beobachtung

Neuester Wetterbericht von vor 55 Minuten, um 18:55 UTC
Wind 3 kt aus Nordost
Temperatur 5°C
Luftfeuchtigkeit 93%
Luftdruck 1013 hPa
Sichtweite 10 km oder mehr
keine Wolken unter 1500 m und keine Kumulonimbus oder Gewitterwolken

METAR: LIPS 221855Z 04003KT CAVOK 05/04 Q1013 RMK BKN BKN110 VIS MIN 9999 WIND THR26 04003KT WIND THR08 00000KT BLU

Zeit: 20:50 (19:50 UTC)

Prognose

Neuester Wetterbericht von vor 2 Stunden und 50 Minuten, um 17:00 UTC
Gültige Prognose vom 22 um 18 UTC bis 23 um 03 UTC
Wind 4 kt aus Ost
Sichtweite 10 km oder mehr
Durchbrochene Bewölkung in der Höhe von 8000 ft

TAF: LIPS 221700Z 2218/2303 09004KT 9999 BKN080

Wetterbeobachtungen und Prognosen von mehr als 4000 Flughäfen (METAR und TAF Bericht).

Die verfügbaren Stationen werden durch gelbe und rote Markierungen auf der Karte dargestellt.

Führen Sie die Maus auf sie, um den Namen der Station zu sehen.

Darauf klicken, um die Beobachtung von Wetterbeobachtungen und Prognosen zu sehen.

Um die Karte zu ändern : klicken Sie auf den grünen Tasten mit einem schwarzen Kreuz Zum Vergrößern, auf den grünen Button mit einem Gedankenstrich zu verkleinern, oder auf die grünen Pfeile für benachbarte Karten.


METAR-TAF: